createdAt,value
2022-08-09T00:02:29.898Z,3.08
2022-08-09T00:07:44.562Z,3.08
2022-08-09T00:12:46.864Z,2.70
2022-08-09T00:18:10.433Z,2.60
2022-08-09T00:23:55.460Z,2.88
2022-08-09T00:28:35.398Z,3.08
2022-08-09T00:33:50.342Z,3.17
2022-08-09T00:38:53.715Z,3.10
2022-08-09T00:44:14.738Z,2.80
2022-08-09T00:49:17.643Z,3.30
2022-08-09T00:54:35.224Z,3.03
2022-08-09T00:59:46.243Z,3.72
2022-08-09T01:04:57.957Z,3.20
2022-08-09T01:10:13.406Z,3.35
2022-08-09T01:15:21.323Z,3.92
2022-08-09T01:20:33.275Z,3.35
2022-08-09T01:25:56.406Z,2.97
2022-08-09T01:31:00.862Z,3.65
2022-08-09T01:36:07.515Z,3.47
2022-08-09T01:41:28.235Z,3.55
2022-08-09T01:46:38.737Z,3.97
2022-08-09T01:51:53.997Z,4.22
2022-08-09T01:56:57.189Z,3.80
2022-08-09T02:02:01.140Z,4.13
2022-08-09T02:07:15.576Z,3.58
2022-08-09T02:12:22.511Z,3.90
2022-08-09T02:18:09.608Z,3.70
2022-08-09T02:22:56.734Z,3.85
2022-08-09T02:28:09.664Z,4.03
2022-08-09T02:33:18.516Z,4.28
2022-08-09T02:38:28.862Z,3.70
2022-08-09T02:43:42.493Z,4.35
2022-08-09T02:49:02.975Z,4.60
2022-08-09T02:54:06.837Z,4.05
2022-08-09T02:59:14.861Z,4.50
2022-08-09T03:04:28.992Z,3.55
2022-08-09T03:09:33.442Z,4.47
2022-08-09T03:14:36.766Z,5.30
2022-08-09T03:19:59.138Z,4.90
2022-08-09T03:25:21.671Z,4.80
2022-08-09T03:30:29.682Z,5.80
2022-08-09T03:36:11.749Z,5.72
2022-08-09T03:40:58.400Z,6.15
2022-08-09T03:46:05.396Z,6.07
2022-08-09T03:51:55.143Z,6.53
2022-08-09T03:56:46.620Z,5.72
2022-08-09T04:01:50.687Z,6.80
2022-08-09T04:06:52.409Z,6.40
2022-08-09T04:12:31.048Z,6.50
2022-08-09T04:17:33.501Z,6.05
2022-08-09T04:22:35.187Z,6.43
2022-08-09T04:27:46.781Z,6.53
2022-08-09T04:32:51.778Z,6.22
2022-08-09T04:37:53.546Z,6.45
2022-08-09T04:42:55.232Z,6.47
2022-08-09T04:48:03.025Z,6.03
2022-08-09T04:53:13.504Z,6.78
2022-08-09T04:58:15.796Z,7.50
2022-08-09T05:03:40.013Z,7.50
2022-08-09T05:08:43.770Z,7.28
2022-08-09T05:13:45.923Z,8.38
2022-08-09T05:18:58.759Z,8.15
2022-08-09T05:24:04.114Z,7.82
2022-08-09T05:29:07.267Z,8.43
2022-08-09T05:34:19.531Z,8.18
2022-08-09T05:39:29.076Z,7.30
2022-08-09T05:44:32.717Z,7.93
2022-08-09T05:50:29.862Z,7.40
2022-08-09T05:54:56.542Z,7.53
2022-08-09T06:00:07.921Z,8.05
2022-08-09T06:05:13.985Z,7.28
2022-08-09T06:10:17.967Z,7.20
2022-08-09T06:15:19.927Z,6.80
2022-08-09T06:20:21.710Z,6.88
2022-08-09T06:25:23.839Z,7.28
2022-08-09T06:30:25.665Z,7.30
2022-08-09T06:35:56.353Z,6.45
2022-08-09T06:40:54.856Z,6.22
2022-08-09T06:46:07.069Z,6.75
2022-08-09T06:51:14.776Z,6.47
2022-08-09T06:56:16.871Z,5.38
2022-08-09T07:01:23.988Z,6.10
2022-08-09T07:06:29.760Z,5.38
2022-08-09T07:11:34.200Z,4.70
2022-08-09T07:16:55.341Z,4.60
2022-08-09T07:21:59.740Z,4.70
2022-08-09T07:27:02.352Z,3.95
2022-08-09T07:32:06.022Z,4.43
2022-08-09T07:37:15.924Z,3.75
2022-08-09T07:42:18.236Z,2.63
2022-08-09T07:47:23.306Z,2.63
2022-08-09T07:52:25.245Z,2.42
2022-08-09T07:57:35.631Z,1.85
2022-08-09T08:02:42.206Z,2.53
2022-08-09T08:08:42.803Z,1.95
2022-08-09T08:13:06.646Z,2.25
2022-08-09T08:18:14.500Z,1.90
2022-08-09T08:23:18.694Z,1.55
2022-08-09T08:28:32.422Z,1.67
2022-08-09T08:33:40.739Z,5.10
2022-08-09T08:38:54.063Z,1.25
2022-08-09T08:44:02.544Z,1.20
2022-08-09T08:49:12.680Z,1.15
2022-08-09T08:54:20.281Z,22.75
2022-08-09T08:59:44.552Z,1.90
2022-08-09T09:04:52.911Z,1.10
2022-08-09T09:10:04.613Z,1.40
2022-08-09T09:15:07.492Z,0.90
2022-08-09T09:20:11.151Z,1.35
2022-08-09T09:26:04.123Z,1.10
2022-08-09T09:31:05.836Z,1.10
2022-08-09T09:36:20.664Z,6.55
2022-08-09T09:41:32.563Z,1.27
2022-08-09T09:46:42.633Z,1.23
2022-08-09T09:51:47.849Z,1.27
2022-08-09T09:58:01.070Z,1.80
2022-08-09T10:02:18.798Z,1.17
2022-08-09T10:07:25.459Z,1.20
2022-08-09T10:12:43.641Z,1.00
2022-08-09T10:17:56.171Z,1.23
2022-08-09T10:23:01.076Z,1.23
2022-08-09T10:28:03.212Z,0.90
2022-08-09T10:33:05.598Z,1.20
2022-08-09T10:38:33.981Z,1.17
2022-08-09T10:43:47.019Z,2.03
2022-08-09T10:49:03.679Z,1.30
2022-08-09T10:54:12.291Z,1.20
2022-08-09T10:59:30.946Z,1.10
2022-08-09T11:04:34.359Z,7.82
2022-08-09T11:09:48.259Z,1.08
2022-08-09T11:14:55.932Z,2.55
2022-08-09T11:20:12.712Z,1.05
2022-08-09T11:25:45.247Z,0.82
2022-08-09T11:30:49.846Z,1.05
2022-08-09T11:36:00.798Z,0.90
2022-08-09T11:41:05.520Z,1.00
2022-08-09T11:46:08.743Z,1.00
2022-08-09T11:53:03.439Z,1.27
2022-08-09T11:56:34.441Z,1.25
2022-08-09T12:02:16.550Z,1.10
2022-08-09T12:07:08.328Z,2.55
2022-08-09T12:12:29.341Z,1.00
2022-08-09T12:17:41.597Z,0.70
2022-08-09T12:22:50.279Z,1.25
2022-08-09T12:29:13.812Z,0.82
2022-08-09T12:33:51.176Z,0.80
2022-08-09T12:38:54.934Z,1.70
2022-08-09T12:44:05.749Z,1.48
2022-08-09T12:49:09.146Z,0.80
2022-08-09T12:54:10.827Z,0.80
2022-08-09T12:59:20.208Z,0.80
2022-08-09T13:04:36.227Z,0.77
2022-08-09T13:09:40.911Z,0.70
2022-08-09T13:14:48.748Z,0.70
2022-08-09T13:20:09.039Z,0.98
2022-08-09T13:25:15.104Z,0.90
2022-08-09T13:30:50.309Z,0.90
2022-08-09T13:36:38.819Z,0.90
2022-08-09T13:41:55.413Z,0.80
2022-08-09T13:47:16.906Z,0.88
2022-08-09T13:52:00.589Z,0.93
2022-08-09T13:57:06.483Z,0.73
2022-08-09T14:02:08.667Z,0.90
2022-08-09T14:07:11.762Z,0.75
2022-08-09T14:12:15.637Z,2.05
2022-08-09T14:17:17.670Z,0.80
2022-08-09T14:22:24.932Z,0.85
2022-08-09T14:27:26.816Z,0.80
2022-08-09T14:32:30.740Z,1.20
2022-08-09T14:37:41.341Z,1.15
2022-08-09T14:42:55.075Z,0.85
2022-08-09T14:48:00.226Z,0.88
2022-08-09T14:53:11.748Z,0.55
2022-08-09T14:58:14.663Z,0.82
2022-08-09T15:03:20.222Z,0.75
2022-08-09T15:08:23.979Z,0.77
2022-08-09T15:13:26.139Z,1.05
2022-08-09T15:18:49.470Z,0.70
2022-08-09T15:24:01.831Z,0.60
2022-08-09T15:29:07.235Z,0.60
2022-08-09T15:34:34.663Z,0.70
2022-08-09T15:39:53.027Z,0.80
2022-08-09T15:44:58.314Z,1.25
2022-08-09T15:50:04.717Z,2.15
2022-08-09T15:55:10.128Z,1.20
2022-08-09T16:00:24.353Z,0.90
2022-08-09T16:05:47.238Z,1.00
2022-08-09T16:10:56.234Z,1.00
2022-08-09T16:16:10.307Z,0.88
2022-08-09T16:21:25.538Z,1.00
2022-08-09T16:26:33.562Z,0.80
2022-08-09T16:32:17.694Z,0.93
2022-08-09T16:36:59.819Z,0.90
2022-08-09T16:42:02.621Z,1.13
2022-08-09T16:48:38.159Z,0.77
2022-08-09T16:52:29.565Z,0.88
2022-08-09T16:58:08.998Z,0.80
2022-08-09T17:02:54.034Z,0.80
2022-08-09T17:08:43.523Z,1.45
2022-08-09T17:13:21.226Z,0.77
2022-08-09T17:18:27.065Z,1.00
2022-08-09T17:24:19.985Z,0.90
2022-08-09T17:28:53.721Z,0.50
2022-08-09T17:33:56.403Z,0.93
2022-08-09T17:39:01.039Z,1.00
2022-08-09T17:44:38.818Z,1.20
2022-08-09T17:49:26.987Z,0.90
2022-08-09T17:54:32.231Z,0.80
2022-08-09T17:59:38.199Z,0.98
2022-08-09T18:04:40.329Z,0.97
2022-08-09T18:09:43.352Z,0.88
2022-08-09T18:14:50.025Z,1.10
2022-08-09T18:20:54.130Z,1.20
2022-08-09T18:25:19.693Z,1.02
2022-08-09T18:30:38.671Z,0.80
2022-08-09T18:35:58.956Z,1.00
2022-08-09T18:41:03.153Z,0.95
2022-08-09T18:46:46.643Z,1.15
2022-08-09T18:51:38.570Z,0.90
2022-08-09T18:56:53.875Z,1.08
2022-08-09T19:01:57.076Z,1.23
2022-08-09T19:06:59.554Z,1.00
2022-08-09T19:12:04.541Z,1.25
2022-08-09T19:17:06.444Z,0.90
2022-08-09T19:22:12.105Z,1.00
2022-08-09T19:27:20.550Z,1.00
